Time;durP1;ratioP1;P1;durP2;ratioP2;P2;SDS_P1;SDS_P2;PMS_P1;PMS_P2;Temp;Humidity;BMP_temperature;BMP_pressure;BME280_temperature;BME280_humidity;BME280_pressure;Samples;Min_cycle;Max_cycle;Signal;HPM_P1;HPM_P2
2023/09/01 00:00:18;;;;;;;67.67;63.47;;;;;;;;;;5063105;28;20021;-58
2023/09/01 00:02:43;;;;;;;63.17;59.37;;;;;;;;;;5060512;28;20519;-57
2023/09/01 00:05:08;;;;;;;168.52;156.50;;;;;;;;;;5052957;28;20024;-57
2023/09/01 00:07:34;;;;;;;67.43;63.20;;;;;;;;;;5068272;28;20079;-57
2023/09/01 00:09:59;;;;;;;140.30;130.03;;;;;;;;;;5061986;28;20020;-57
2023/09/01 00:12:24;;;;;;;140.33;129.80;;;;;;;;;;5062624;28;20491;-57
2023/09/01 00:14:49;;;;;;;294.80;272.05;;;;;;;;;;5061281;28;20396;-57
2023/09/01 00:17:15;;;;;;;161.73;150.97;;;;;;;;;;5057973;28;20028;-57
2023/09/01 00:19:40;;;;;;;118.67;110.63;;;;;;;;;;5057503;28;20103;-57
2023/09/01 00:22:05;;;;;;;88.80;82.90;;;;;;;;;;5058221;28;20071;-57
2023/09/01 00:24:32;;;;;;;145.13;135.40;;;;;;;;;;5052284;28;20017;-56
2023/09/01 00:26:57;;;;;;;;;;;;;;;;;;5058185;28;20028;-57
2023/09/01 00:29:22;;;;;;;99.85;93.93;;;;;;;;;;5070680;28;20432;-57
2023/09/01 00:31:47;;;;;;;144.77;135.50;;;;;;;;;;5064645;28;20032;-57
2023/09/01 00:34:12;;;;;;;103.87;97.77;;;;;;;;;;5068278;28;20024;-57
2023/09/01 00:36:37;;;;;;;71.80;67.57;;;;;;;;;;5069784;28;20024;-57
2023/09/01 00:39:03;;;;;;;130.68;122.50;;;;;;;;;;5063372;28;20519;-57
2023/09/01 00:41:28;;;;;;;94.30;88.27;;;;;;;;;;5068523;28;20027;-58
2023/09/01 00:43:53;;;;;;;81.70;76.35;;;;;;;;;;5069301;28;20451;-57
2023/09/01 00:46:18;;;;;;;133.07;124.20;;;;;;;;;;5067487;28;20026;-58
2023/09/01 00:48:43;;;;;;;101.80;95.03;;;;;;;;;;5066817;28;20476;-57
2023/09/01 00:51:08;;;;;;;88.43;83.10;;;;;;;;;;5070468;28;20056;-57
2023/09/01 00:53:35;;;;;;;97.43;91.40;;;;;;;;;;5068047;28;20090;-57
2023/09/01 00:56:03;;;;;;;131.35;123.30;;;;;;;;;;5069528;28;20056;-57
2023/09/01 00:58:28;;;;;;;109.85;102.78;;;;;;;;;;5062644;28;20085;-57
2023/09/01 01:00:57;;;;;;;128.30;120.30;;;;;;;;;;5070058;28;20107;-58
2023/09/01 01:03:22;;;;;;;114.40;106.70;;;;;;;;;;5065592;28;20135;-57
2023/09/01 01:05:56;;;;;;;110.87;103.90;;;;;;;;;;5065480;28;20115;-58
2023/09/01 01:08:34;;;;;;;72.47;68.10;;;;;;;;;;5061680;28;20476;-57
2023/09/01 01:10:59;;;;;;;;;;;;;;;;;;5069875;28;20522;-57
2023/09/01 01:13:26;;;;;;;169.05;157.77;;;;;;;;;;5068922;28;20376;-57
2023/09/01 01:15:53;;;;;;;212.35;198.48;;;;;;;;;;5064197;28;20098;-57
2023/09/01 01:18:18;;;;;;;127.47;119.80;;;;;;;;;;5059501;28;20024;-57
2023/09/01 01:20:46;;;;;;;146.45;136.68;;;;;;;;;;5065707;28;20052;-57
2023/09/01 01:23:16;;;;;;;306.20;283.33;;;;;;;;;;5068394;28;20028;-57
2023/09/01 01:25:49;;;;;;;82.88;77.72;;;;;;;;;;5069937;28;20029;-57
2023/09/01 01:28:14;;;;;;;;;;;;;;;;;;5068461;28;20567;-57
2023/09/01 01:30:39;;;;;;;157.38;146.88;;;;;;;;;;5068803;28;19994;-57
2023/09/01 01:33:06;;;;;;;92.17;86.73;;;;;;;;;;5065041;28;20047;-57
2023/09/01 01:35:31;;;;;;;;;;;;;;;;;;5070342;28;20116;-57
2023/09/01 01:38:05;;;;;;;238.00;220.57;;;;;;;;;;5061575;28;20003;-58
2023/09/01 01:40:31;;;;;;;101.68;94.90;;;;;;;;;;5054353;28;20029;-57
2023/09/01 01:42:58;;;;;;;174.15;162.43;;;;;;;;;;5069465;28;20078;-58
2023/09/01 01:45:24;;;;;;;106.90;99.72;;;;;;;;;;5058642;28;20037;-57
2023/09/01 01:47:50;;;;;;;264.15;246.25;;;;;;;;;;5064500;28;20016;-56
2023/09/01 01:50:15;;;;;;;183.30;171.27;;;;;;;;;;5056176;28;20025;-57
2023/09/01 01:52:40;;;;;;;91.17;85.40;;;;;;;;;;5064002;28;20044;-57
2023/09/01 01:55:07;;;;;;;157.15;146.45;;;;;;;;;;5060438;28;20016;-58
2023/09/01 01:57:32;;;;;;;163.70;152.73;;;;;;;;;;5058285;28;20370;-57
2023/09/01 01:59:58;;;;;;;209.45;195.23;;;;;;;;;;5055858;28;20044;-57
2023/09/01 02:02:23;;;;;;;117.57;109.97;;;;;;;;;;5063754;28;20510;-57
2023/09/01 02:04:48;;;;;;;159.30;149.05;;;;;;;;;;5059143;28;20037;-57
2023/09/01 02:07:13;;;;;;;97.20;91.17;;;;;;;;;;5060493;28;20397;-57
2023/09/01 02:09:38;;;;;;;256.27;237.33;;;;;;;;;;5058834;28;20031;-57
2023/09/01 02:12:04;;;;;;;310.30;286.60;;;;;;;;;;5065074;28;20483;-56
2023/09/01 02:14:30;;;;;;;108.95;101.15;;;;;;;;;;5060204;28;20419;-57
2023/09/01 02:16:55;;;;;;;91.07;85.00;;;;;;;;;;5066685;28;20016;-58
2023/09/01 02:19:21;;;;;;;323.08;298.98;;;;;;;;;;5058494;28;20017;-58
2023/09/01 02:21:46;;;;;;;267.98;248.88;;;;;;;;;;5061394;28;20074;-58
2023/09/01 02:24:11;;;;;;;362.77;334.30;;;;;;;;;;5067035;28;20023;-57
2023/09/01 02:26:36;;;;;;;136.10;127.43;;;;;;;;;;5060282;28;20102;-58
2023/09/01 02:29:04;;;;;;;97.27;91.67;;;;;;;;;;5060970;28;20023;-58
2023/09/01 02:31:30;;;;;;;201.07;186.65;;;;;;;;;;5067255;28;20028;-58
2023/09/01 02:33:55;;;;;;;92.57;86.70;;;;;;;;;;5056495;28;20082;-58
2023/09/01 02:36:21;;;;;;;98.50;92.63;;;;;;;;;;5060884;28;20099;-57
2023/09/01 02:38:46;;;;;;;97.07;90.75;;;;;;;;;;5069272;28;20055;-58
2023/09/01 02:41:11;;;;;;;85.15;79.68;;;;;;;;;;5065544;28;20512;-58
2023/09/01 02:43:36;;;;;;;96.13;90.20;;;;;;;;;;5058583;28;20029;-58
2023/09/01 02:46:04;;;;;;;95.85;89.95;;;;;;;;;;5057258;28;20035;-58
2023/09/01 02:48:29;;;;;;;168.55;157.40;;;;;;;;;;5055388;28;20017;-58
2023/09/01 02:50:55;;;;;;;132.20;124.10;;;;;;;;;;5052552;28;20484;-58
2023/09/01 02:53:20;;;;;;;175.53;163.67;;;;;;;;;;5059722;28;20074;-58
2023/09/01 02:55:45;;;;;;;309.70;287.23;;;;;;;;;;5067771;28;20039;-58
2023/09/01 02:58:10;;;;;;;111.73;104.67;;;;;;;;;;5058814;28;20124;-57
2023/09/01 03:00:36;;;;;;;290.87;268.73;;;;;;;;;;5054492;28;20021;-58
2023/09/01 03:03:02;;;;;;;106.55;99.70;;;;;;;;;;5055417;28;20483;-57
2023/09/01 03:05:27;;;;;;;140.38;130.43;;;;;;;;;;5052594;28;20029;-57
2023/09/01 03:07:52;;;;;;;113.03;106.03;;;;;;;;;;5054766;28;20028;-57
2023/09/01 03:10:17;;;;;;;92.87;87.07;;;;;;;;;;5056644;28;20017;-58
2023/09/01 03:12:42;;;;;;;114.00;106.77;;;;;;;;;;5057337;28;20017;-57
2023/09/01 03:15:09;;;;;;;116.30;109.43;;;;;;;;;;5055804;28;20031;-57
2023/09/01 03:17:34;;;;;;;191.77;179.68;;;;;;;;;;5061297;28;20496;-57
2023/09/01 03:19:59;;;;;;;177.53;166.30;;;;;;;;;;5055206;28;20036;-57
2023/09/01 03:22:24;;;;;;;139.20;130.80;;;;;;;;;;5056241;28;20467;-57
2023/09/01 03:24:53;;;;;;;139.27;130.73;;;;;;;;;;5069446;28;20032;-57
2023/09/01 03:27:18;;;;;;;275.67;257.33;;;;;;;;;;5066124;28;20016;-58
2023/09/01 03:29:43;;;;;;;248.43;231.82;;;;;;;;;;5070399;28;20028;-58
2023/09/01 03:32:10;;;;;;;144.73;134.83;;;;;;;;;;5069232;28;22009;-58
2023/09/01 03:34:35;;;;;;;;;;;;;;;;;;5064883;28;20031;-58
2023/09/01 03:37:00;;;;;;;168.73;158.00;;;;;;;;;;5066782;28;19913;-58
2023/09/01 03:39:26;;;;;;;239.13;222.67;;;;;;;;;;5065572;28;20021;-57
2023/09/01 03:41:51;;;;;;;132.52;124.38;;;;;;;;;;5069567;28;20503;-58
2023/09/01 03:44:17;;;;;;;92.63;86.73;;;;;;;;;;5059624;28;20009;-58
2023/09/01 03:46:42;;;;;;;197.05;183.18;;;;;;;;;;5050753;28;20025;-57
2023/09/01 03:49:07;;;;;;;167.43;155.07;;;;;;;;;;5056625;28;20025;-57
2023/09/01 03:51:32;;;;;;;96.37;90.57;;;;;;;;;;5055922;28;20054;-57
2023/09/01 03:53:58;;;;;;;117.03;109.57;;;;;;;;;;5062127;28;20142;-57
2023/09/01 03:56:23;;;;;;;108.80;101.97;;;;;;;;;;5059168;28;20104;-57
2023/09/01 03:58:48;;;;;;;132.60;124.27;;;;;;;;;;5059697;28;20040;-57
2023/09/01 04:01:13;;;;;;;228.88;213.10;;;;;;;;;;5056347;28;20029;-57
2023/09/01 04:03:39;;;;;;;112.17;105.37;;;;;;;;;;5056185;28;20028;-57
2023/09/01 04:06:05;;;;;;;256.45;238.88;;;;;;;;;;5059714;28;20534;-57
2023/09/01 04:08:31;;;;;;;156.73;146.02;;;;;;;;;;5067307;28;20488;-57
2023/09/01 04:10:56;;;;;;;535.35;492.30;;;;;;;;;;5067220;28;20024;-57
2023/09/01 04:13:21;;;;;;;368.73;340.13;;;;;;;;;;5064648;28;20400;-57
2023/09/01 04:15:47;;;;;;;195.75;181.43;;;;;;;;;;5068627;28;20032;-57
2023/09/01 04:18:12;;;;;;;222.48;206.75;;;;;;;;;;5066898;28;20031;-57
2023/09/01 04:20:37;;;;;;;237.50;221.57;;;;;;;;;;5064226;28;20499;-58
2023/09/01 04:23:02;;;;;;;263.63;243.73;;;;;;;;;;5061896;28;20029;-59
2023/09/01 04:25:27;;;;;;;257.77;239.03;;;;;;;;;;5065235;28;20034;-58
2023/09/01 04:27:53;;;;;;;130.43;122.28;;;;;;;;;;5058867;28;20873;-58
2023/09/01 04:30:18;;;;;;;233.97;217.33;;;;;;;;;;5064276;28;20017;-58
2023/09/01 04:32:44;;;;;;;190.83;178.73;;;;;;;;;;5066417;28;20040;-60
2023/09/01 04:35:09;;;;;;;151.00;141.80;;;;;;;;;;5065360;28;20024;-57
2023/09/01 04:37:34;;;;;;;185.80;173.27;;;;;;;;;;5067372;28;20031;-57
2023/09/01 04:39:59;;;;;;;127.40;119.13;;;;;;;;;;5072162;28;20469;-57
2023/09/01 04:42:25;;;;;;;120.80;113.67;;;;;;;;;;5067631;28;20021;-57
2023/09/01 04:44:50;;;;;;;169.38;157.80;;;;;;;;;;5068392;28;20045;-57
2023/09/01 04:47:15;;;;;;;175.93;163.87;;;;;;;;;;5068546;28;20404;-57
2023/09/01 04:49:40;;;;;;;242.90;225.37;;;;;;;;;;5066448;28;20033;-57
2023/09/01 04:52:05;;;;;;;97.97;91.90;;;;;;;;;;5066937;28;20077;-58
2023/09/01 04:54:30;;;;;;;164.03;153.60;;;;;;;;;;5073652;28;20048;-57
2023/09/01 04:56:56;;;;;;;128.03;119.70;;;;;;;;;;5072444;28;20027;-57
2023/09/01 04:59:21;;;;;;;117.23;109.80;;;;;;;;;;5068912;28;20029;-58
2023/09/01 05:01:46;;;;;;;89.80;84.00;;;;;;;;;;5069140;28;20036;-58
2023/09/01 05:04:12;;;;;;;189.88;177.15;;;;;;;;;;5070301;28;20033;-58
2023/09/01 05:06:37;;;;;;;110.95;103.85;;;;;;;;;;5069486;28;20028;-57
2023/09/01 05:09:03;;;;;;;204.20;190.00;;;;;;;;;;5064730;28;20046;-58
2023/09/01 05:11:29;;;;;;;125.30;117.22;;;;;;;;;;5069030;28;20799;-58
2023/09/01 05:13:55;;;;;;;193.85;180.65;;;;;;;;;;5073256;28;20029;-58
2023/09/01 05:16:20;;;;;;;176.50;164.38;;;;;;;;;;5071003;28;20035;-57
2023/09/01 05:18:46;;;;;;;129.50;121.60;;;;;;;;;;5073162;28;20021;-58
2023/09/01 05:21:11;;;;;;;189.02;176.95;;;;;;;;;;5075387;28;20035;-58
2023/09/01 05:23:37;;;;;;;182.90;170.50;;;;;;;;;;5065510;28;20021;-58
2023/09/01 05:26:02;;;;;;;158.57;148.20;;;;;;;;;;5069664;28;20043;-58
2023/09/01 05:28:27;;;;;;;136.37;127.57;;;;;;;;;;5068672;28;20027;-58
2023/09/01 05:30:55;;;;;;;150.60;140.70;;;;;;;;;;5066852;28;20968;-58
2023/09/01 05:33:20;;;;;;;162.02;150.95;;;;;;;;;;5065509;28;20048;-57
2023/09/01 05:35:45;;;;;;;199.43;186.17;;;;;;;;;;5071729;28;20379;-58
2023/09/01 05:38:10;;;;;;;169.93;159.40;;;;;;;;;;5070028;28;20099;-58
2023/09/01 05:40:36;;;;;;;124.57;116.30;;;;;;;;;;5070582;28;20020;-58
2023/09/01 05:43:01;;;;;;;143.80;135.18;;;;;;;;;;5064874;28;21025;-58
2023/09/01 05:45:26;;;;;;;135.47;126.43;;;;;;;;;;5068155;28;20384;-57
2023/09/01 05:47:52;;;;;;;370.33;342.48;;;;;;;;;;5066537;28;20025;-57
2023/09/01 05:50:18;;;;;;;308.25;286.02;;;;;;;;;;5067292;28;20395;-57
2023/09/01 05:52:43;;;;;;;211.70;196.82;;;;;;;;;;5072877;28;20097;-58
2023/09/01 05:55:09;;;;;;;206.50;192.10;;;;;;;;;;5072918;28;20409;-58
2023/09/01 05:57:34;;;;;;;136.65;127.90;;;;;;;;;;5065955;28;20119;-58
2023/09/01 05:59:59;;;;;;;134.40;125.87;;;;;;;;;;5070411;28;20020;-58
2023/09/01 06:02:24;;;;;;;155.07;145.67;;;;;;;;;;5069028;28;20025;-58
2023/09/01 06:04:49;;;;;;;78.25;73.25;;;;;;;;;;5072980;28;20021;-58
2023/09/01 06:07:14;;;;;;;384.73;354.83;;;;;;;;;;5070346;28;20036;-59
2023/09/01 06:09:40;;;;;;;147.60;137.67;;;;;;;;;;5069810;28;20017;-59
2023/09/01 06:12:05;;;;;;;106.70;99.93;;;;;;;;;;5069824;28;20499;-59
2023/09/01 06:14:30;;;;;;;183.30;170.60;;;;;;;;;;5070463;28;20559;-58
2023/09/01 06:16:55;;;;;;;274.47;255.77;;;;;;;;;;5076505;28;20077;-59
2023/09/01 06:19:21;;;;;;;200.57;186.73;;;;;;;;;;5066680;28;20024;-59
2023/09/01 06:21:46;;;;;;;94.00;88.10;;;;;;;;;;5067113;28;20023;-58
2023/09/01 06:24:11;;;;;;;201.90;186.60;;;;;;;;;;5063453;28;20373;-59
2023/09/01 06:26:36;;;;;;;155.50;144.88;;;;;;;;;;5062633;28;20025;-59
2023/09/01 06:29:02;;;;;;;112.73;105.40;;;;;;;;;;5067561;28;20129;-59
2023/09/01 06:31:27;;;;;;;339.25;313.08;;;;;;;;;;5065912;28;20488;-57
2023/09/01 06:33:54;;;;;;;112.57;104.77;;;;;;;;;;5067840;28;20031;-59
2023/09/01 06:36:19;;;;;;;197.43;183.15;;;;;;;;;;5065284;28;20024;-58
2023/09/01 06:38:44;;;;;;;154.03;143.00;;;;;;;;;;5065015;28;20752;-59
2023/09/01 06:41:10;;;;;;;258.60;238.50;;;;;;;;;;5068212;28;20032;-59
2023/09/01 06:43:35;;;;;;;176.13;164.17;;;;;;;;;;5067152;28;20041;-59
2023/09/01 06:46:01;;;;;;;354.02;327.75;;;;;;;;;;5069389;28;20031;-57
2023/09/01 06:48:26;;;;;;;233.88;216.82;;;;;;;;;;5067594;28;20008;-57
2023/09/01 06:50:51;;;;;;;172.53;159.63;;;;;;;;;;5072819;28;20017;-57
2023/09/01 06:53:16;;;;;;;200.53;185.17;;;;;;;;;;5066897;28;20037;-57
2023/09/01 06:55:41;;;;;;;189.97;176.93;;;;;;;;;;5069547;28;20468;-57
2023/09/01 06:58:07;;;;;;;275.00;254.83;;;;;;;;;;5071325;28;20020;-58
2023/09/01 07:00:32;;;;;;;227.88;210.73;;;;;;;;;;5076255;28;20017;-58
2023/09/01 07:02:58;;;;;;;256.43;236.57;;;;;;;;;;5072152;28;20027;-57
2023/09/01 07:05:23;;;;;;;218.68;202.82;;;;;;;;;;5071529;28;20476;-57
2023/09/01 07:07:50;;;;;;;258.10;237.90;;;;;;;;;;5064884;28;20044;-58
2023/09/01 07:10:15;;;;;;;153.18;143.48;;;;;;;;;;5070605;28;20012;-57
2023/09/01 07:12:40;;;;;;;121.65;114.00;;;;;;;;;;5072022;28;20032;-57
2023/09/01 07:15:06;;;;;;;202.80;188.47;;;;;;;;;;5066015;28;20024;-57
2023/09/01 07:17:31;;;;;;;151.25;139.90;;;;;;;;;;5070881;28;20028;-59
2023/09/01 07:19:56;;;;;;;295.03;271.63;;;;;;;;;;5067872;28;20024;-58
2023/09/01 07:22:21;;;;;;;310.27;285.45;;;;;;;;;;5069427;28;20025;-58
2023/09/01 07:24:46;;;;;;;361.47;333.07;;;;;;;;;;5070765;28;20028;-56
2023/09/01 07:27:11;;;;;;;176.37;165.00;;;;;;;;;;5070638;28;20032;-58
2023/09/01 07:29:37;;;;;;;298.25;276.85;;;;;;;;;;5068483;28;20031;-57
2023/09/01 07:32:03;;;;;;;453.57;418.30;;;;;;;;;;5065747;28;20057;-59
2023/09/01 07:34:28;;;;;;;192.07;177.27;;;;;;;;;;5070784;28;20043;-58
2023/09/01 07:36:53;;;;;;;228.83;212.27;;;;;;;;;;5071083;28;20016;-59
2023/09/01 07:39:18;;;;;;;275.65;252.60;;;;;;;;;;5069470;28;20027;-59
2023/09/01 07:41:44;;;;;;;390.37;360.80;;;;;;;;;;5071867;28;20376;-58
2023/09/01 07:44:09;;;;;;;322.00;297.83;;;;;;;;;;5071008;28;20020;-58
2023/09/01 07:46:34;;;;;;;200.37;186.20;;;;;;;;;;5069718;28;20428;-59
2023/09/01 07:48:59;;;;;;;217.27;201.83;;;;;;;;;;5069950;28;20035;-58
2023/09/01 07:51:24;;;;;;;231.80;214.73;;;;;;;;;;5071257;28;20031;-58
2023/09/01 07:53:50;;;;;;;198.97;185.30;;;;;;;;;;5071523;28;20044;-58
2023/09/01 07:56:15;;;;;;;291.60;269.13;;;;;;;;;;5071341;28;20029;-58
2023/09/01 07:58:40;;;;;;;316.43;291.67;;;;;;;;;;5070990;28;20032;-59
2023/09/01 08:01:05;;;;;;;360.67;332.60;;;;;;;;;;5070498;28;20020;-58
2023/09/01 08:03:31;;;;;;;246.37;229.07;;;;;;;;;;5069412;28;20059;-58
2023/09/01 08:05:58;;;;;;;205.55;191.57;;;;;;;;;;5071083;28;20545;-58
2023/09/01 08:08:23;;;;;;;259.80;239.65;;;;;;;;;;5070937;28;20039;-59
2023/09/01 08:10:48;;;;;;;220.13;203.03;;;;;;;;;;5071053;28;20388;-57
2023/09/01 08:13:13;;;;;;;300.52;278.73;;;;;;;;;;5071161;28;20059;-58
2023/09/01 08:15:38;;;;;;;166.00;155.67;;;;;;;;;;5067508;28;20392;-57
2023/09/01 08:18:04;;;;;;;188.80;175.60;;;;;;;;;;5065903;28;20082;-57
2023/09/01 08:20:30;;;;;;;;;;;;;;;;;;5068302;28;20538;-57
2023/09/01 08:22:55;;;;;;;342.23;315.35;;;;;;;;;;5071083;28;20366;-58
2023/09/01 08:25:20;;;;;;;426.13;392.43;;;;;;;;;;5063387;28;20025;-57
2023/09/01 08:27:46;;;;;;;274.45;256.38;;;;;;;;;;5070530;28;20024;-57
2023/09/01 08:30:11;;;;;;;177.33;165.53;;;;;;;;;;5071511;28;20206;-57
2023/09/01 08:32:39;;;;;;;208.70;194.35;;;;;;;;;;5074078;28;20024;-57
2023/09/01 08:35:04;;;;;;;195.65;181.75;;;;;;;;;;5067962;28;20025;-58
2023/09/01 08:37:29;;;;;;;198.80;184.67;;;;;;;;;;5066311;28;20029;-58
2023/09/01 08:39:54;;;;;;;286.83;263.73;;;;;;;;;;5065006;28;20016;-59
2023/09/01 08:42:21;;;;;;;171.03;158.53;;;;;;;;;;5061784;28;20444;-58
2023/09/01 08:44:48;;;;;;;270.00;249.13;;;;;;;;;;5061752;28;20029;-56
2023/09/01 08:47:14;;;;;;;220.07;205.52;;;;;;;;;;5070204;28;20017;-58
2023/09/01 08:49:39;;;;;;;271.70;252.73;;;;;;;;;;5070270;28;20464;-57
2023/09/01 08:52:05;;;;;;;242.60;224.83;;;;;;;;;;5070327;28;20023;-58
2023/09/01 08:54:30;;;;;;;290.50;268.48;;;;;;;;;;5069818;28;20102;-57
2023/09/01 08:56:56;;;;;;;282.25;259.55;;;;;;;;;;5065549;28;20047;-56
2023/09/01 08:59:21;;;;;;;268.33;247.00;;;;;;;;;;5064036;28;20044;-57
2023/09/01 09:01:47;;;;;;;232.50;216.43;;;;;;;;;;5069820;28;20021;-56
2023/09/01 09:04:12;;;;;;;206.38;193.15;;;;;;;;;;5070267;28;20434;-57
2023/09/01 09:06:38;;;;;;;238.97;222.97;;;;;;;;;;5069413;28;20028;-56
2023/09/01 09:09:18;;;;;;;257.33;240.07;;;;;;;;;;5070056;28;20005;-56
2023/09/01 09:11:59;;;;;;;402.33;370.67;;;;;;;;;;5069591;28;20025;-56
2023/09/01 09:14:25;;;;;;;185.93;173.30;;;;;;;;;;5061289;28;20016;-56
2023/09/01 09:16:53;;;;;;;431.33;397.98;;;;;;;;;;5069362;28;20349;-58
2023/09/01 09:19:19;;;;;;;443.88;407.92;;;;;;;;;;5066714;28;20032;-58
2023/09/01 09:21:44;;;;;;;295.52;271.50;;;;;;;;;;5070476;28;20020;-58
2023/09/01 09:24:10;;;;;;;406.10;372.17;;;;;;;;;;5068701;28;20025;-56
2023/09/01 09:26:35;;;;;;;416.67;380.43;;;;;;;;;;5063244;28;20021;-56
2023/09/01 09:29:07;;;;;;;415.17;379.27;;;;;;;;;;5070240;28;20100;-56
2023/09/01 09:31:44;;;;;;;236.85;218.32;;;;;;;;;;5069744;28;20036;-56
2023/09/01 09:34:19;;;;;;;205.38;189.43;;;;;;;;;;5067861;28;20116;-56
2023/09/01 09:36:46;;;;;;;360.02;332.92;;;;;;;;;;5069288;28;20103;-56
2023/09/01 09:39:21;;;;;;;336.83;310.38;;;;;;;;;;5070019;28;20027;-56
2023/09/01 09:41:46;;;;;;;314.65;289.30;;;;;;;;;;5065001;28;20017;-57
2023/09/01 09:44:11;;;;;;;278.77;257.67;;;;;;;;;;5069164;28;20020;-57
2023/09/01 09:46:39;;;;;;;242.75;223.18;;;;;;;;;;5065488;28;20021;-57
2023/09/01 09:49:04;;;;;;;223.55;208.40;;;;;;;;;;5068705;28;20492;-59
2023/09/01 09:51:30;;;;;;;240.10;222.20;;;;;;;;;;5066607;28;20028;-58
2023/09/01 09:53:56;;;;;;;270.00;249.38;;;;;;;;;;5069982;28;20059;-56
2023/09/01 09:56:33;;;;;;;286.20;265.00;;;;;;;;;;5070492;28;20486;-56
2023/09/01 09:59:06;;;;;;;266.58;248.65;;;;;;;;;;5073439;28;20411;-57
2023/09/01 10:01:34;;;;;;;249.55;232.55;;;;;;;;;;5069383;28;20074;-57
2023/09/01 10:04:02;;;;;;;444.63;411.70;;;;;;;;;;5074583;28;20032;-57
2023/09/01 10:06:28;;;;;;;232.20;215.27;;;;;;;;;;5073942;28;20040;-56
2023/09/01 10:08:53;;;;;;;304.50;280.13;;;;;;;;;;5073089;28;20016;-56
2023/09/01 10:11:19;;;;;;;249.50;232.77;;;;;;;;;;5073848;28;20368;-56
2023/09/01 10:13:47;;;;;;;254.85;238.23;;;;;;;;;;5073417;28;20044;-56
2023/09/01 10:16:13;;;;;;;242.10;224.68;;;;;;;;;;5073219;28;20044;-58
2023/09/01 10:18:40;;;;;;;380.92;348.75;;;;;;;;;;5073023;28;20063;-56
2023/09/01 10:21:05;;;;;;;357.35;327.05;;;;;;;;;;5073262;28;20031;-57
2023/09/01 10:23:32;;;;;;;294.13;269.85;;;;;;;;;;5073096;28;20020;-57
2023/09/01 10:26:11;;;;;;;249.07;232.18;;;;;;;;;;5068161;28;20361;-58
2023/09/01 10:28:56;;;;;;;344.48;321.30;;;;;;;;;;5072212;28;20438;-57
2023/09/01 10:31:23;;;;;;;492.50;451.13;;;;;;;;;;5072035;28;20499;-57
2023/09/01 10:34:01;;;;;;;355.88;325.10;;;;;;;;;;5073075;28;20553;-57
2023/09/01 10:36:26;;;;;;;416.80;380.10;;;;;;;;;;5067411;28;20016;-57
2023/09/01 10:38:52;;;;;;;355.00;327.33;;;;;;;;;;5063748;28;20039;-57
2023/09/01 10:41:37;;;;;;;281.23;257.20;;;;;;;;;;5071639;28;20495;-57
2023/09/01 10:44:03;;;;;;;377.20;345.73;;;;;;;;;;5071666;28;20115;-57
2023/09/01 10:46:28;;;;;;;264.08;245.85;;;;;;;;;;5072493;28;20472;-57
2023/09/01 10:49:00;;;;;;;276.40;255.63;;;;;;;;;;5070302;28;20024;-57
2023/09/01 10:51:29;;;;;;;352.23;325.50;;;;;;;;;;5072511;28;20515;-57
2023/09/01 10:54:00;;;;;;;342.25;309.90;;;;;;;;;;5070551;28;20041;-58
2023/09/01 10:56:25;;;;;;;365.02;335.02;;;;;;;;;;5072812;28;20017;-57
2023/09/01 10:58:52;;;;;;;269.75;250.73;;;;;;;;;;5071806;28;20026;-57
2023/09/01 11:01:27;;;;;;;326.23;297.30;;;;;;;;;;5072095;28;20062;-57
2023/09/01 11:03:52;;;;;;;267.25;244.13;;;;;;;;;;5072895;28;20074;-57
2023/09/01 11:06:17;;;;;;;362.43;332.43;;;;;;;;;;5068620;28;20040;-57
2023/09/01 11:08:59;;;;;;;411.03;377.03;;;;;;;;;;5071241;28;20393;-57
2023/09/01 11:11:24;;;;;;;342.35;313.88;;;;;;;;;;5058370;28;20021;-57
2023/09/01 11:14:20;;;;;;;352.73;324.33;;;;;;;;;;5069120;28;20043;-57
2023/09/01 11:16:45;;;;;;;478.35;438.90;;;;;;;;;;5062438;28;20037;-58
2023/09/01 11:19:10;;;;;;;368.10;337.37;;;;;;;;;;5064112;28;20029;-58
2023/09/01 11:21:36;;;;;;;370.73;343.35;;;;;;;;;;5070891;28;20040;-57
2023/09/01 11:24:01;;;;;;;347.33;320.20;;;;;;;;;;5069054;28;20115;-59
2023/09/01 11:26:26;;;;;;;383.50;352.25;;;;;;;;;;5070682;28;20025;-58
2023/09/01 11:28:53;;;;;;;285.58;265.05;;;;;;;;;;5068185;28;20077;-57
2023/09/01 11:31:19;;;;;;;359.02;328.48;;;;;;;;;;5072158;28;20020;-57
2023/09/01 11:33:50;;;;;;;336.13;311.83;;;;;;;;;;5063848;28;20021;-57
2023/09/01 11:36:17;;;;;;;396.42;364.90;;;;;;;;;;5064393;28;20514;-57
2023/09/01 11:38:43;;;;;;;290.02;267.20;;;;;;;;;;5069204;28;20110;-57
2023/09/01 11:41:13;;;;;;;297.98;272.70;;;;;;;;;;5071602;28;20074;-57
2023/09/01 11:43:39;;;;;;;321.77;295.88;;;;;;;;;;5069227;28;20017;-58
2023/09/01 11:46:04;;;;;;;332.48;303.83;;;;;;;;;;5071525;28;20501;-57
2023/09/01 11:48:29;;;;;;;404.13;373.27;;;;;;;;;;5070890;28;20357;-57
2023/09/01 11:50:55;;;;;;;427.43;392.47;;;;;;;;;;5070125;28;20462;-58
2023/09/01 11:53:21;;;;;;;361.27;331.98;;;;;;;;;;5071337;28;20017;-57
2023/09/01 11:55:47;;;;;;;250.40;231.07;;;;;;;;;;5071745;28;20073;-57
2023/09/01 11:58:12;;;;;;;275.97;254.17;;;;;;;;;;5070696;28;20017;-56
2023/09/01 12:00:38;;;;;;;223.37;206.43;;;;;;;;;;5068311;28;20818;-57
2023/09/01 12:03:04;;;;;;;286.95;267.83;;;;;;;;;;5070739;28;20020;-57
2023/09/01 12:05:30;;;;;;;303.67;278.10;;;;;;;;;;5071334;28;20020;-56
2023/09/01 12:07:55;;;;;;;259.77;238.43;;;;;;;;;;5068442;28;20020;-57
2023/09/01 12:10:24;;;;;;;280.80;261.37;;;;;;;;;;5065662;28;20021;-57
2023/09/01 12:12:49;;;;;;;360.02;330.95;;;;;;;;;;5068133;28;20025;-57
2023/09/01 12:15:14;;;;;;;444.87;408.90;;;;;;;;;;5067432;28;20107;-58
2023/09/01 12:17:39;;;;;;;403.57;367.17;;;;;;;;;;5070337;28;20435;-57
2023/09/01 12:20:06;;;;;;;257.70;236.13;;;;;;;;;;5070447;28;20017;-56
2023/09/01 12:22:31;;;;;;;276.98;253.93;;;;;;;;;;5068381;28;20081;-57
2023/09/01 12:24:57;;;;;;;399.50;363.77;;;;;;;;;;5070034;28;20012;-57
2023/09/01 12:27:22;;;;;;;301.83;276.67;;;;;;;;;;5069362;28;20024;-57
2023/09/01 12:29:47;;;;;;;324.13;298.67;;;;;;;;;;5070585;28;20031;-56
2023/09/01 12:32:13;;;;;;;401.93;367.27;;;;;;;;;;5066506;28;20024;-57
2023/09/01 12:34:38;;;;;;;366.92;336.83;;;;;;;;;;5070355;28;20534;-57
2023/09/01 12:37:03;;;;;;;389.77;359.77;;;;;;;;;;5062994;28;20028;-57
2023/09/01 12:39:28;;;;;;;408.35;373.17;;;;;;;;;;5065622;28;20042;-57
2023/09/01 12:41:53;;;;;;;549.37;504.43;;;;;;;;;;5069610;28;20394;-58
2023/09/01 12:44:19;;;;;;;429.90;393.70;;;;;;;;;;5069918;28;20028;-56
2023/09/01 12:46:44;;;;;;;312.45;288.58;;;;;;;;;;5068377;28;20036;-57
2023/09/01 12:49:09;;;;;;;411.90;378.13;;;;;;;;;;5067932;28;20476;-57
2023/09/01 12:51:35;;;;;;;522.27;478.80;;;;;;;;;;5070031;28;20107;-57
2023/09/01 12:54:02;;;;;;;455.37;418.47;;;;;;;;;;5068898;28;20021;-57
2023/09/01 12:56:27;;;;;;;288.92;263.50;;;;;;;;;;5069886;28;20104;-57
2023/09/01 12:58:53;;;;;;;352.07;322.30;;;;;;;;;;5062454;28;20498;-57
2023/09/01 13:01:18;;;;;;;448.60;405.98;;;;;;;;;;5065244;28;20024;-57
2023/09/01 13:03:44;;;;;;;378.57;345.70;;;;;;;;;;5064690;28;20050;-57
2023/09/01 13:06:12;;;;;;;354.93;325.90;;;;;;;;;;5066769;28;20622;-58
2023/09/01 13:08:38;;;;;;;216.75;199.25;;;;;;;;;;5058385;28;20025;-57
2023/09/01 13:11:07;;;;;;;311.63;285.73;;;;;;;;;;5058170;28;20118;-57
2023/09/01 13:13:32;;;;;;;297.08;269.98;;;;;;;;;;5054957;28;20557;-57
2023/09/01 13:15:57;;;;;;;316.30;290.17;;;;;;;;;;5065338;28;20107;-57
2023/09/01 13:18:23;;;;;;;301.95;274.58;;;;;;;;;;5053122;28;20483;-58
2023/09/01 13:20:48;;;;;;;310.63;283.00;;;;;;;;;;5053640;28;20040;-58
2023/09/01 13:23:13;;;;;;;310.30;287.60;;;;;;;;;;5051077;28;20040;-58
2023/09/01 13:25:38;;;;;;;351.17;325.87;;;;;;;;;;5049784;28;20013;-58
2023/09/01 13:28:03;;;;;;;313.60;290.10;;;;;;;;;;5049269;28;20596;-58
2023/09/01 13:30:29;;;;;;;381.70;351.73;;;;;;;;;;5049626;28;20368;-58
2023/09/01 13:32:54;;;;;;;419.27;383.83;;;;;;;;;;5061060;28;20028;-59
2023/09/01 13:35:19;;;;;;;242.47;225.17;;;;;;;;;;5059199;28;20102;-58
2023/09/01 13:37:44;;;;;;;292.90;268.33;;;;;;;;;;5063329;28;20025;-57
2023/09/01 13:40:09;;;;;;;248.53;229.23;;;;;;;;;;5073744;28;20032;-57
2023/09/01 13:42:35;;;;;;;298.08;276.55;;;;;;;;;;5073041;28;20021;-58
2023/09/01 13:45:00;;;;;;;289.70;266.60;;;;;;;;;;5073105;28;20024;-58
2023/09/01 13:47:26;;;;;;;337.00;310.50;;;;;;;;;;5073194;28;20337;-57
2023/09/01 13:49:51;;;;;;;275.30;254.82;;;;;;;;;;5071568;28;20077;-58